createdAt,value
2023-04-03T00:01:01.334Z,5.60
2023-04-03T00:04:05.530Z,5.50
2023-04-03T00:07:12.976Z,5.50
2023-04-03T00:10:16.941Z,5.50
2023-04-03T00:13:25.625Z,5.50
2023-04-03T00:16:29.498Z,5.40
2023-04-03T00:19:35.774Z,5.40
2023-04-03T00:22:39.841Z,5.40
2023-04-03T00:25:46.239Z,5.30
2023-04-03T00:28:52.391Z,5.30
2023-04-03T00:31:58.405Z,5.30
2023-04-03T00:35:02.119Z,5.30
2023-04-03T00:38:08.100Z,5.30
2023-04-03T00:41:11.808Z,5.20
2023-04-03T00:44:24.225Z,5.20
2023-04-03T00:47:28.130Z,5.20
2023-04-03T00:50:35.263Z,5.20
2023-04-03T00:54:01.228Z,5.20
2023-04-03T00:57:08.179Z,5.10
2023-04-03T01:00:17.282Z,5.10
2023-04-03T01:03:24.432Z,5.10
2023-04-03T01:06:31.520Z,5.10
2023-04-03T01:09:42.805Z,5.10
2023-04-03T01:12:47.832Z,5.00
2023-04-03T01:15:56.048Z,5.00
2023-04-03T01:19:00.155Z,5.00
2023-04-03T01:22:17.504Z,4.90
2023-04-03T01:25:21.301Z,4.90
2023-04-03T01:28:27.888Z,4.90
2023-04-03T01:31:36.193Z,4.90
2023-04-03T01:34:44.489Z,4.90
2023-04-03T01:37:48.462Z,4.90
2023-04-03T01:40:54.397Z,4.80
2023-04-03T01:43:58.149Z,4.80
2023-04-03T01:47:04.932Z,4.80
2023-04-03T01:50:11.165Z,4.80
2023-04-03T01:53:17.473Z,4.80
2023-04-03T01:56:21.610Z,4.70
2023-04-03T01:59:28.623Z,4.70
2023-04-03T02:02:32.615Z,4.70
2023-04-03T02:05:40.494Z,4.70
2023-04-03T02:08:44.534Z,4.60
2023-04-03T02:11:50.566Z,4.60
2023-04-03T02:14:54.488Z,4.60
2023-04-03T02:18:00.518Z,4.50
2023-04-03T02:21:06.612Z,4.50
2023-04-03T02:24:12.515Z,4.50
2023-04-03T02:27:16.474Z,4.50
2023-04-03T02:30:22.444Z,4.50
2023-04-03T02:33:26.746Z,4.40
2023-04-03T02:36:35.050Z,4.40
2023-04-03T02:39:42.432Z,4.40
2023-04-03T02:42:48.383Z,4.30
2023-04-03T02:45:52.301Z,4.30
2023-04-03T02:48:58.086Z,4.30
2023-04-03T02:52:04.061Z,4.20
2023-04-03T02:55:10.425Z,4.20
2023-04-03T02:58:14.754Z,4.20
2023-04-03T03:01:20.731Z,4.10
2023-04-03T03:04:24.481Z,4.10
2023-04-03T03:07:32.177Z,4.10
2023-04-03T03:10:36.168Z,4.10
2023-04-03T03:13:42.328Z,4.00
2023-04-03T03:16:46.251Z,4.00
2023-04-03T03:19:52.210Z,3.90
2023-04-03T03:22:58.381Z,3.90
2023-04-03T03:26:06.096Z,3.90
2023-04-03T03:29:11.736Z,3.80
2023-04-03T03:32:17.805Z,3.80
2023-04-03T03:35:21.841Z,3.80
2023-04-03T03:38:29.928Z,3.70
2023-04-03T03:41:34.036Z,3.70
2023-04-03T03:44:40.901Z,3.70
2023-04-03T03:47:46.076Z,3.60
2023-04-03T03:50:52.670Z,3.60
2023-04-03T03:54:02.484Z,3.60
2023-04-03T03:57:08.497Z,3.60
2023-04-03T04:00:13.959Z,3.60
2023-04-03T04:03:26.208Z,3.60
2023-04-03T04:06:29.987Z,3.60
2023-04-03T04:09:41.638Z,3.50
2023-04-03T04:12:46.782Z,3.50
2023-04-03T04:15:53.483Z,3.50
2023-04-03T04:18:57.602Z,3.40
2023-04-03T04:22:04.111Z,3.40
2023-04-03T04:25:12.492Z,3.40
2023-04-03T04:28:19.564Z,3.30
2023-04-03T04:31:25.888Z,3.30
2023-04-03T04:34:31.890Z,3.30
2023-04-03T04:37:36.967Z,3.20
2023-04-03T04:40:45.555Z,3.20
2023-04-03T04:43:49.907Z,3.10
2023-04-03T04:46:56.381Z,3.10
2023-04-03T04:50:00.148Z,3.10
2023-04-03T04:53:06.750Z,3.10
2023-04-03T04:56:12.691Z,3.00
2023-04-03T04:59:20.764Z,3.00
2023-04-03T05:02:26.285Z,2.90
2023-04-03T05:05:33.857Z,2.90
2023-04-03T05:08:37.570Z,2.90
2023-04-03T05:11:45.612Z,2.90
2023-04-03T05:14:52.221Z,2.90
2023-04-03T05:17:58.252Z,2.80
2023-04-03T05:21:02.471Z,2.80
2023-04-03T05:24:09.812Z,2.80
2023-04-03T05:27:18.531Z,2.70
2023-04-03T05:30:29.454Z,2.70
2023-04-03T05:33:33.700Z,2.70
2023-04-03T05:36:40.661Z,2.70
2023-04-03T05:39:46.525Z,2.60
2023-04-03T05:42:54.587Z,2.70
2023-04-03T05:46:01.279Z,2.60
2023-04-03T05:49:08.837Z,2.60
2023-04-03T05:52:20.229Z,2.60
2023-04-03T05:55:26.291Z,2.60
2023-04-03T05:58:32.186Z,2.60
2023-04-03T06:01:38.301Z,2.60
2023-04-03T06:04:42.481Z,2.50
2023-04-03T06:07:49.993Z,2.60
2023-04-03T06:10:57.706Z,2.60
2023-04-03T06:14:05.466Z,2.60
2023-04-03T06:17:09.622Z,2.60
2023-04-03T06:20:15.812Z,2.70
2023-04-03T06:23:19.650Z,2.70
2023-04-03T06:26:25.588Z,2.80
2023-04-03T06:29:31.829Z,2.80
2023-04-03T06:32:37.626Z,2.90
2023-04-03T06:35:41.643Z,3.00
2023-04-03T06:38:47.691Z,3.10
2023-04-03T06:41:51.889Z,3.10
2023-04-03T06:45:08.303Z,3.20
2023-04-03T06:48:12.310Z,3.30
2023-04-03T06:51:21.804Z,3.40
2023-04-03T06:54:25.958Z,3.50
2023-04-03T06:57:31.915Z,3.60
2023-04-03T07:00:37.894Z,3.70
2023-04-03T07:03:43.752Z,3.80
2023-04-03T07:06:47.554Z,3.90
2023-04-03T07:09:53.457Z,4.00
2023-04-03T07:12:57.153Z,4.10
2023-04-03T07:16:06.589Z,4.20
2023-04-03T07:19:11.053Z,4.30
2023-04-03T07:22:16.790Z,4.40
2023-04-03T07:25:21.054Z,4.50
2023-04-03T07:28:27.137Z,4.60
2023-04-03T07:31:34.347Z,4.70
2023-04-03T07:34:40.587Z,4.70
2023-04-03T07:37:44.331Z,4.80
2023-04-03T07:40:51.093Z,4.90
2023-04-03T07:43:55.367Z,5.00
2023-04-03T07:47:03.307Z,5.10
2023-04-03T07:50:07.732Z,5.20
2023-04-03T07:53:13.573Z,5.30
2023-04-03T07:56:17.593Z,5.40
2023-04-03T07:59:23.504Z,5.50
2023-04-03T08:02:29.670Z,5.70
2023-04-03T08:05:39.239Z,5.80
2023-04-03T08:08:43.489Z,5.90
2023-04-03T08:11:49.258Z,6.10
2023-04-03T08:14:53.483Z,6.30
2023-04-03T08:18:02.122Z,6.40
2023-04-03T08:21:08.248Z,6.60
2023-04-03T08:24:14.185Z,6.70
2023-04-03T08:27:18.225Z,6.90
2023-04-03T08:30:24.377Z,7.10
2023-04-03T08:33:30.024Z,7.30
2023-04-03T08:36:35.789Z,7.40
2023-04-03T08:39:39.763Z,7.60
2023-04-03T08:42:51.991Z,7.70
2023-04-03T08:45:57.576Z,7.90
2023-04-03T08:49:06.493Z,8.10
2023-04-03T08:52:15.480Z,8.20
2023-04-03T08:55:25.729Z,8.30
2023-04-03T08:58:31.245Z,8.50
2023-04-03T09:01:38.046Z,8.70
2023-04-03T09:04:44.354Z,8.80
2023-04-03T09:07:52.762Z,9.00
2023-04-03T09:11:02.400Z,9.20
2023-04-03T09:14:14.185Z,9.30
2023-04-03T09:17:23.655Z,9.50
2023-04-03T09:20:38.957Z,9.60
2023-04-03T09:23:46.199Z,9.70
2023-04-03T09:26:56.532Z,9.90
2023-04-03T09:30:00.791Z,10.00
2023-04-03T09:33:07.519Z,10.10
2023-04-03T09:36:13.265Z,10.20
2023-04-03T09:39:20.911Z,10.40
2023-04-03T09:42:25.786Z,10.50
2023-04-03T09:45:33.423Z,10.60
2023-04-03T09:48:37.272Z,10.80
2023-04-03T09:51:45.688Z,10.90
2023-04-03T09:54:49.441Z,11.10
2023-04-03T09:57:56.166Z,11.20
2023-04-03T10:01:00.852Z,11.30
2023-04-03T10:04:08.587Z,11.40
2023-04-03T10:07:27.724Z,11.50
2023-04-03T10:10:36.564Z,11.60
2023-04-03T10:13:52.920Z,11.60
2023-04-03T10:17:01.584Z,11.70
2023-04-03T10:20:09.049Z,11.80
2023-04-03T10:23:20.929Z,11.90
2023-04-03T10:26:31.946Z,12.00
2023-04-03T10:29:40.663Z,12.10
2023-04-03T10:32:50.910Z,12.10
2023-04-03T10:36:03.420Z,12.10
2023-04-03T10:39:11.192Z,12.20
2023-04-03T10:42:22.328Z,12.20
2023-04-03T10:45:28.940Z,12.20
2023-04-03T10:48:43.231Z,12.20
2023-04-03T10:51:48.018Z,12.30
2023-04-03T10:54:58.744Z,12.20
2023-04-03T10:58:05.512Z,12.20
2023-04-03T11:01:12.659Z,12.20
2023-04-03T11:04:17.686Z,12.20
2023-04-03T11:07:24.735Z,12.20
2023-04-03T11:10:38.608Z,12.20
2023-04-03T11:13:49.561Z,12.20
2023-04-03T11:16:57.079Z,12.10
2023-04-03T11:20:07.360Z,12.10
2023-04-03T11:23:16.203Z,12.10
2023-04-03T11:26:23.586Z,12.10
2023-04-03T11:29:35.600Z,12.10
2023-04-03T11:32:54.093Z,12.10
2023-04-03T11:36:01.132Z,12.10
2023-04-03T11:39:12.567Z,12.20
2023-04-03T11:42:17.775Z,12.20
2023-04-03T11:45:32.181Z,12.20
2023-04-03T11:48:47.160Z,12.30
2023-04-03T11:51:53.162Z,12.20
2023-04-03T11:54:57.563Z,12.20
2023-04-03T11:58:13.727Z,12.20
2023-04-03T12:01:33.964Z,12.10
2023-04-03T12:04:41.919Z,12.10
2023-04-03T12:07:45.761Z,12.00
2023-04-03T12:11:06.909Z,12.00
2023-04-03T12:14:16.108Z,11.90
2023-04-03T12:17:25.111Z,11.90
2023-04-03T12:20:44.205Z,11.80
2023-04-03T12:24:03.189Z,11.80
2023-04-03T12:27:25.068Z,11.70
2023-04-03T12:30:32.562Z,11.70
2023-04-03T12:33:44.621Z,11.60
2023-04-03T12:36:57.473Z,11.60
2023-04-03T12:40:11.192Z,11.60
2023-04-03T12:43:27.328Z,11.60
2023-04-03T12:46:37.896Z,11.60
2023-04-03T12:49:45.597Z,11.60
2023-04-03T12:52:52.431Z,11.60
2023-04-03T12:56:21.030Z,11.60
2023-04-03T12:59:25.694Z,11.60
2023-04-03T13:02:34.019Z,11.60
2023-04-03T13:05:37.864Z,11.60
2023-04-03T13:08:50.957Z,11.60
2023-04-03T13:11:59.442Z,11.60
2023-04-03T13:15:14.529Z,11.60
2023-04-03T13:18:29.333Z,11.60
2023-04-03T13:21:35.797Z,11.60
2023-04-03T13:24:40.718Z,11.50
2023-04-03T13:27:48.931Z,11.50
2023-04-03T13:31:04.556Z,11.50
2023-04-03T13:34:14.059Z,11.40
2023-04-03T13:37:25.660Z,11.40
2023-04-03T13:40:41.458Z,11.50
2023-04-03T13:43:57.574Z,11.50
2023-04-03T13:47:17.589Z,11.40
2023-04-03T13:50:22.955Z,11.40
2023-04-03T13:53:30.122Z,11.50
2023-04-03T13:56:36.496Z,11.50
2023-04-03T13:59:44.741Z,11.50
2023-04-03T14:02:50.811Z,11.50
2023-04-03T14:05:56.819Z,11.50
2023-04-03T14:09:00.879Z,11.50
2023-04-03T14:12:13.087Z,11.50
2023-04-03T14:15:26.686Z,11.50
2023-04-03T14:18:32.643Z,11.50
2023-04-03T14:21:36.606Z,11.50
2023-04-03T14:24:43.359Z,11.40
2023-04-03T14:27:48.124Z,11.40
2023-04-03T14:30:56.168Z,11.40
2023-04-03T14:34:00.196Z,11.40
2023-04-03T14:37:08.399Z,11.40
2023-04-03T14:40:15.434Z,11.30
2023-04-03T14:43:21.788Z,11.30
2023-04-03T14:46:38.660Z,11.30
2023-04-03T14:49:49.441Z,11.30
2023-04-03T14:52:55.157Z,11.20
2023-04-03T14:56:00.927Z,11.20
2023-04-03T14:59:05.057Z,11.20
2023-04-03T15:02:23.658Z,11.10
2023-04-03T15:05:27.554Z,11.10
2023-04-03T15:08:33.539Z,11.10
2023-04-03T15:11:37.518Z,11.10
2023-04-03T15:14:51.757Z,11.00
2023-04-03T15:18:03.411Z,11.00
2023-04-03T15:21:09.515Z,10.90
2023-04-03T15:24:13.861Z,10.90
2023-04-03T15:27:19.744Z,10.90
2023-04-03T15:30:23.560Z,10.90
2023-04-03T15:33:31.530Z,10.90
2023-04-03T15:36:35.568Z,10.90
2023-04-03T15:39:41.786Z,10.90
2023-04-03T15:42:45.918Z,10.90
2023-04-03T15:45:52.615Z,10.80
2023-04-03T15:49:01.422Z,10.80
2023-04-03T15:52:07.794Z,10.80
2023-04-03T15:55:11.935Z,10.80
2023-04-03T15:58:29.696Z,10.80
2023-04-03T16:01:41.019Z,10.70
2023-04-03T16:04:48.984Z,10.70
2023-04-03T16:07:52.928Z,10.70
2023-04-03T16:10:58.905Z,10.70
2023-04-03T16:14:03.028Z,10.70
2023-04-03T16:17:08.823Z,10.60
2023-04-03T16:20:15.384Z,10.70
2023-04-03T16:23:21.615Z,10.60
2023-04-03T16:26:25.865Z,10.60
2023-04-03T16:29:31.938Z,10.60
2023-04-03T16:32:35.801Z,10.60
2023-04-03T16:35:44.538Z,10.50
2023-04-03T16:38:48.478Z,10.50
2023-04-03T16:41:54.419Z,10.40
2023-04-03T16:44:59.305Z,10.40
2023-04-03T16:48:05.569Z,10.40
2023-04-03T16:51:11.436Z,10.40
2023-04-03T16:54:17.462Z,10.40
2023-04-03T16:57:21.511Z,10.30
2023-04-03T17:00:27.510Z,10.30
2023-04-03T17:03:31.350Z,10.20
2023-04-03T17:06:39.344Z,10.20
2023-04-03T17:09:43.092Z,10.20
2023-04-03T17:12:49.116Z,10.20
2023-04-03T17:15:53.136Z,10.10
2023-04-03T17:19:00.714Z,10.00
2023-04-03T17:22:06.778Z,10.00
2023-04-03T17:25:13.612Z,9.90
2023-04-03T17:28:17.364Z,9.90
2023-04-03T17:31:23.073Z,9.80
2023-04-03T17:34:27.177Z,9.80
2023-04-03T17:37:34.865Z,9.80
2023-04-03T17:40:39.003Z,9.70
2023-04-03T17:43:44.791Z,9.70
2023-04-03T17:46:48.621Z,9.70
2023-04-03T17:49:54.463Z,9.60
2023-04-03T17:53:00.503Z,9.60
2023-04-03T17:56:10.056Z,9.60
2023-04-03T17:59:15.816Z,9.50
2023-04-03T18:02:22.635Z,9.50
2023-04-03T18:05:28.911Z,9.50
2023-04-03T18:08:38.084Z,9.40
2023-04-03T18:11:42.055Z,9.30
2023-04-03T18:14:48.776Z,9.30
2023-04-03T18:17:56.089Z,9.30
2023-04-03T18:21:02.091Z,9.20
2023-04-03T18:24:09.016Z,9.20
2023-04-03T18:27:16.004Z,9.20
2023-04-03T18:30:19.906Z,9.10
2023-04-03T18:33:25.669Z,9.00
2023-04-03T18:36:29.908Z,9.00
2023-04-03T18:39:37.939Z,9.00
2023-04-03T18:42:42.299Z,8.90
2023-04-03T18:45:48.909Z,8.90
2023-04-03T18:48:52.856Z,8.80
2023-04-03T18:51:59.139Z,8.80
2023-04-03T18:55:05.780Z,8.70
2023-04-03T18:58:11.495Z,8.70
2023-04-03T19:01:15.891Z,8.60
2023-04-03T19:04:22.164Z,8.60
2023-04-03T19:07:26.401Z,8.50
2023-04-03T19:10:34.615Z,8.50
2023-04-03T19:13:46.708Z,8.40
2023-04-03T19:17:07.757Z,8.40
2023-04-03T19:20:12.901Z,8.30
2023-04-03T19:23:18.965Z,8.20
2023-04-03T19:26:25.688Z,8.20
2023-04-03T19:29:31.775Z,8.10
2023-04-03T19:32:35.671Z,8.10
2023-04-03T19:35:42.262Z,8.00
2023-04-03T19:38:46.389Z,7.90
2023-04-03T19:41:54.690Z,7.90
2023-04-03T19:44:59.163Z,7.80
2023-04-03T19:48:07.788Z,7.70
2023-04-03T19:51:12.014Z,7.70
2023-04-03T19:54:17.859Z,7.60
2023-04-03T19:57:23.865Z,7.60
2023-04-03T20:00:30.760Z,7.50
2023-04-03T20:03:35.278Z,7.50
2023-04-03T20:06:41.403Z,7.40
2023-04-03T20:09:45.734Z,7.40
2023-04-03T20:12:53.844Z,7.30
2023-04-03T20:15:57.885Z,7.30
2023-04-03T20:19:05.529Z,7.20
2023-04-03T20:22:09.220Z,7.10
2023-04-03T20:25:19.855Z,7.10
2023-04-03T20:28:35.738Z,7.00
2023-04-03T20:31:42.164Z,7.00
2023-04-03T20:34:57.309Z,6.90
2023-04-03T20:38:07.092Z,6.90
2023-04-03T20:41:11.257Z,6.80
2023-04-03T20:44:21.243Z,6.80
2023-04-03T20:47:25.032Z,6.70
2023-04-03T20:50:31.546Z,6.60
2023-04-03T20:53:35.580Z,6.60
2023-04-03T20:56:41.609Z,6.60
2023-04-03T20:59:47.843Z,6.50
2023-04-03T21:02:56.369Z,6.50
2023-04-03T21:06:01.288Z,6.50
2023-04-03T21:09:22.117Z,6.40
2023-04-03T21:12:40.847Z,6.40
2023-04-03T21:15:51.464Z,6.40
2023-04-03T21:18:58.869Z,6.30
2023-04-03T21:22:07.482Z,6.30
2023-04-03T21:25:11.660Z,6.30
2023-04-03T21:28:18.057Z,6.20
2023-04-03T21:31:22.252Z,6.20
2023-04-03T21:34:29.166Z,6.10
2023-04-03T21:37:35.120Z,6.10
2023-04-03T21:40:41.553Z,6.10
2023-04-03T21:43:48.633Z,6.10
2023-04-03T21:46:55.257Z,6.00
2023-04-03T21:49:59.305Z,6.00
2023-04-03T21:53:07.586Z,6.00
2023-04-03T21:56:11.745Z,6.00
2023-04-03T21:59:27.857Z,6.00
2023-04-03T22:02:41.235Z,6.00
2023-04-03T22:05:59.562Z,5.90
2023-04-03T22:09:05.480Z,5.90
2023-04-03T22:12:11.941Z,5.90
2023-04-03T22:15:18.241Z,5.80
2023-04-03T22:18:24.240Z,5.80
2023-04-03T22:21:28.363Z,5.80
2023-04-03T22:24:36.083Z,5.80
2023-04-03T22:27:39.993Z,5.80
2023-04-03T22:30:48.587Z,5.80
2023-04-03T22:33:52.515Z,5.70
2023-04-03T22:36:59.124Z,5.70
2023-04-03T22:40:05.116Z,5.60
2023-04-03T22:43:13.996Z,5.70
2023-04-03T22:46:17.726Z,5.60
2023-04-03T22:49:23.765Z,5.60
2023-04-03T22:52:27.783Z,5.60
2023-04-03T22:55:35.883Z,5.60
2023-04-03T22:58:39.695Z,5.50
2023-04-03T23:01:45.493Z,5.50
2023-04-03T23:04:49.390Z,5.50
2023-04-03T23:07:55.234Z,5.40
2023-04-03T23:11:01.707Z,5.40
2023-04-03T23:14:07.447Z,5.30
2023-04-03T23:17:11.368Z,5.30
2023-04-03T23:20:17.532Z,5.30
2023-04-03T23:23:21.859Z,5.20
2023-04-03T23:26:29.950Z,5.20
2023-04-03T23:29:33.668Z,5.20
2023-04-03T23:32:39.908Z,5.20
2023-04-03T23:35:45.826Z,5.10
2023-04-03T23:38:51.589Z,5.10
2023-04-03T23:41:57.287Z,5.10
2023-04-03T23:45:03.456Z,5.00
2023-04-03T23:48:07.597Z,5.00
2023-04-03T23:51:13.405Z,5.00
2023-04-03T23:54:19.281Z,4.90
2023-04-03T23:57:26.969Z,4.90
